createdAt,value
2023-04-19T00:00:31.893Z,5.40
2023-04-19T00:02:03.766Z,6.78
2023-04-19T00:03:35.860Z,5.68
2023-04-19T00:05:08.473Z,6.90
2023-04-19T00:06:42.340Z,5.43
2023-04-19T00:08:14.166Z,6.38
2023-04-19T00:09:45.953Z,5.90
2023-04-19T00:11:17.734Z,5.97
2023-04-19T00:12:49.551Z,5.10
2023-04-19T00:14:21.336Z,5.70
2023-04-19T00:15:53.145Z,4.25
2023-04-19T00:17:25.053Z,4.85
2023-04-19T00:18:56.905Z,4.70
2023-04-19T00:20:28.713Z,7.50
2023-04-19T00:22:00.604Z,5.70
2023-04-19T00:23:32.528Z,4.70
2023-04-19T00:25:04.717Z,4.75
2023-04-19T00:26:37.042Z,4.55
2023-04-19T00:28:09.530Z,4.80
2023-04-19T00:29:41.511Z,5.68
2023-04-19T00:31:13.355Z,4.40
2023-04-19T00:32:45.251Z,4.32
2023-04-19T00:34:17.212Z,4.43
2023-04-19T00:35:49.131Z,4.05
2023-04-19T00:37:21.440Z,4.35
2023-04-19T00:38:53.333Z,6.57
2023-04-19T00:40:25.179Z,3.83
2023-04-19T00:42:00.235Z,4.57
2023-04-19T00:43:32.124Z,4.20
2023-04-19T00:45:06.256Z,4.43
2023-04-19T00:46:38.924Z,5.35
2023-04-19T00:48:11.143Z,4.05
2023-04-19T00:49:43.995Z,5.70
2023-04-19T00:51:16.198Z,5.00
2023-04-19T00:52:49.058Z,6.53
2023-04-19T00:54:21.298Z,4.18
2023-04-19T00:55:57.815Z,4.22
2023-04-19T00:57:30.117Z,4.40
2023-04-19T00:59:02.614Z,4.40
2023-04-19T01:00:37.032Z,4.55
2023-04-19T01:02:10.163Z,4.72
2023-04-19T01:03:42.563Z,5.03
2023-04-19T01:05:14.972Z,4.25
2023-04-19T01:06:46.891Z,4.78
2023-04-19T01:08:19.139Z,4.50
2023-04-19T01:09:53.914Z,4.45
2023-04-19T01:11:29.168Z,4.93
2023-04-19T01:13:00.957Z,4.97
2023-04-19T01:14:32.776Z,4.47
2023-04-19T01:16:04.951Z,4.70
2023-04-19T01:17:37.683Z,4.93
2023-04-19T01:19:10.507Z,4.95
2023-04-19T01:20:42.416Z,3.70
2023-04-19T01:22:21.723Z,4.80
2023-04-19T01:23:53.545Z,6.32
2023-04-19T01:25:27.590Z,5.18
2023-04-19T01:26:59.481Z,4.18
2023-04-19T01:28:33.132Z,7.57
2023-04-19T01:30:05.368Z,4.90
2023-04-19T01:31:37.309Z,5.68
2023-04-19T01:33:09.275Z,5.15
2023-04-19T01:34:43.000Z,5.63
2023-04-19T01:36:14.892Z,4.57
2023-04-19T01:37:47.065Z,4.57
2023-04-19T01:39:19.080Z,4.53
2023-04-19T01:40:50.973Z,6.15
2023-04-19T01:42:23.075Z,4.22
2023-04-19T01:43:54.904Z,4.82
2023-04-19T01:45:26.727Z,4.40
2023-04-19T01:46:58.589Z,4.80
2023-04-19T01:48:30.577Z,4.65
2023-04-19T01:50:02.377Z,5.18
2023-04-19T01:51:34.202Z,4.10
2023-04-19T01:53:06.419Z,5.03
2023-04-19T01:54:38.198Z,3.90
2023-04-19T01:56:10.020Z,3.80
2023-04-19T01:57:42.336Z,5.80
2023-04-19T01:59:14.225Z,4.85
2023-04-19T02:00:46.379Z,4.95
2023-04-19T02:02:18.313Z,5.07
2023-04-19T02:03:50.463Z,4.65
2023-04-19T02:05:22.427Z,5.53
2023-04-19T02:06:54.233Z,4.30
2023-04-19T02:08:26.729Z,4.47
2023-04-19T02:09:59.865Z,4.90
2023-04-19T02:11:31.803Z,6.13
2023-04-19T02:13:03.663Z,4.10
2023-04-19T02:14:35.819Z,5.22
2023-04-19T02:16:08.235Z,5.70
2023-04-19T02:17:40.847Z,3.75
2023-04-19T02:19:12.686Z,6.30
2023-04-19T02:20:44.553Z,6.00
2023-04-19T02:22:16.385Z,5.28
2023-04-19T02:23:48.195Z,5.88
2023-04-19T02:25:20.543Z,6.63
2023-04-19T02:26:52.498Z,6.22
2023-04-19T02:28:24.357Z,7.53
2023-04-19T02:29:56.686Z,5.20
2023-04-19T02:31:29.580Z,5.15
2023-04-19T02:33:01.426Z,5.47
2023-04-19T02:34:34.620Z,5.70
2023-04-19T02:36:06.829Z,4.93
2023-04-19T02:37:38.854Z,5.13
2023-04-19T02:39:10.759Z,6.85
2023-04-19T02:40:43.741Z,5.90
2023-04-19T02:42:15.574Z,4.72
2023-04-19T02:43:47.380Z,5.32
2023-04-19T02:45:19.195Z,7.45
2023-04-19T02:46:52.687Z,5.88
2023-04-19T02:48:24.510Z,5.85
2023-04-19T02:49:56.539Z,6.00
2023-04-19T02:51:28.410Z,6.90
2023-04-19T02:53:00.222Z,7.45
2023-04-19T02:54:35.126Z,6.57
2023-04-19T02:56:07.622Z,6.97
2023-04-19T02:57:39.480Z,8.55
2023-04-19T02:59:13.702Z,6.43
2023-04-19T03:00:45.529Z,6.20
2023-04-19T03:02:21.067Z,5.88
2023-04-19T03:03:53.105Z,5.43
2023-04-19T03:05:25.368Z,6.93
2023-04-19T03:06:57.181Z,5.85
2023-04-19T03:08:29.575Z,7.10
2023-04-19T03:10:01.841Z,7.18
2023-04-19T03:11:33.938Z,7.13
2023-04-19T03:13:05.784Z,6.93
2023-04-19T03:14:37.727Z,7.72
2023-04-19T03:16:09.821Z,5.45
2023-04-19T03:17:42.516Z,7.22
2023-04-19T03:19:14.863Z,10.10
2023-04-19T03:20:52.707Z,6.57
2023-04-19T03:22:24.635Z,7.68
2023-04-19T03:23:57.284Z,8.82
2023-04-19T03:25:30.429Z,6.13
2023-04-19T03:27:14.188Z,8.57
2023-04-19T03:28:48.710Z,8.57
2023-04-19T03:30:20.528Z,9.00
2023-04-19T03:31:52.409Z,6.80
2023-04-19T03:33:24.506Z,7.95
2023-04-19T03:34:56.889Z,7.43
2023-04-19T03:36:29.540Z,8.23
2023-04-19T03:38:02.064Z,7.00
2023-04-19T03:39:34.219Z,8.57
2023-04-19T03:41:25.506Z,7.72
2023-04-19T03:43:17.440Z,7.55
2023-04-19T03:44:49.346Z,6.25
2023-04-19T03:46:23.224Z,9.23
2023-04-19T03:47:55.170Z,10.15
2023-04-19T03:49:27.141Z,8.20
2023-04-19T03:51:08.091Z,8.20
2023-04-19T03:52:39.951Z,7.82
2023-04-19T03:54:12.335Z,7.68
2023-04-19T03:55:44.247Z,8.30
2023-04-19T03:57:17.790Z,7.80
2023-04-19T03:58:52.335Z,8.52
2023-04-19T04:00:24.320Z,8.82
2023-04-19T04:02:01.422Z,9.15
2023-04-19T04:03:34.058Z,9.70
2023-04-19T04:05:07.889Z,8.00
2023-04-19T04:06:40.762Z,10.23
2023-04-19T04:08:14.076Z,10.52
2023-04-19T04:09:47.998Z,9.65
2023-04-19T04:11:20.012Z,9.80
2023-04-19T04:12:53.759Z,9.77
2023-04-19T04:14:32.342Z,7.18
2023-04-19T04:16:05.449Z,6.97
2023-04-19T04:17:37.511Z,9.50
2023-04-19T04:19:10.055Z,8.98
2023-04-19T04:20:45.570Z,6.68
2023-04-19T04:22:17.607Z,6.88
2023-04-19T04:23:50.111Z,7.68
2023-04-19T04:25:45.281Z,7.25
2023-04-19T04:27:21.574Z,7.68
2023-04-19T04:28:55.024Z,6.78
2023-04-19T04:30:28.053Z,7.85
2023-04-19T04:32:01.921Z,8.48
2023-04-19T04:33:41.803Z,8.65
2023-04-19T04:35:15.832Z,6.50
2023-04-19T04:36:54.428Z,6.68
2023-04-19T04:38:28.171Z,6.68
2023-04-19T04:40:01.505Z,8.40
2023-04-19T04:41:33.605Z,8.52
2023-04-19T04:43:05.818Z,8.80
2023-04-19T04:44:39.233Z,7.63
2023-04-19T04:46:13.376Z,6.43
2023-04-19T04:47:47.481Z,7.82
2023-04-19T04:49:20.952Z,7.18
2023-04-19T04:50:52.824Z,7.55
2023-04-19T04:52:24.776Z,5.80
2023-04-19T04:54:05.774Z,6.70
2023-04-19T04:55:37.885Z,8.20
2023-04-19T04:57:09.997Z,6.82
2023-04-19T04:58:41.889Z,6.05
2023-04-19T05:00:17.902Z,7.55
2023-04-19T05:02:00.807Z,6.90
2023-04-19T05:03:32.927Z,7.88
2023-04-19T05:05:11.411Z,5.47
2023-04-19T05:06:44.704Z,7.93
2023-04-19T05:08:17.853Z,6.38
2023-04-19T05:09:50.751Z,6.20
2023-04-19T05:11:27.931Z,5.00
2023-04-19T05:13:01.916Z,4.88
2023-04-19T05:14:35.014Z,5.07
2023-04-19T05:16:07.234Z,5.50
2023-04-19T05:17:39.823Z,5.53
2023-04-19T05:19:11.752Z,5.50
2023-04-19T05:20:49.833Z,7.05
2023-04-19T05:22:27.610Z,4.38
2023-04-19T05:23:59.509Z,4.75
2023-04-19T05:25:31.389Z,6.20
2023-04-19T05:27:04.012Z,4.90
2023-04-19T05:28:35.957Z,4.32
2023-04-19T05:30:15.670Z,5.63
2023-04-19T05:31:49.865Z,5.03
2023-04-19T05:33:42.103Z,5.45
2023-04-19T05:35:14.774Z,5.45
2023-04-19T05:36:46.687Z,3.67
2023-04-19T05:38:19.022Z,3.63
2023-04-19T05:39:51.225Z,4.65
2023-04-19T05:41:23.973Z,3.90
2023-04-19T05:42:55.869Z,4.32
2023-04-19T05:44:27.639Z,5.15
2023-04-19T05:45:59.533Z,4.10
2023-04-19T05:47:31.544Z,3.83
2023-04-19T05:51:21.582Z,3.90
2023-04-19T05:53:03.203Z,3.90
2023-04-19T05:54:36.274Z,5.05
2023-04-19T05:56:09.426Z,4.00
2023-04-19T05:57:41.611Z,3.75
2023-04-19T05:59:14.276Z,4.90
2023-04-19T06:00:46.598Z,2.75
2023-04-19T06:02:21.816Z,3.65
2023-04-19T06:03:54.745Z,2.55
2023-04-19T06:05:27.227Z,3.92
2023-04-19T06:07:00.964Z,3.20
2023-04-19T06:08:32.783Z,2.92
2023-04-19T06:10:04.969Z,2.58
2023-04-19T06:11:46.979Z,1.95
2023-04-19T06:14:52.843Z,2.28
2023-04-19T06:16:24.834Z,3.13
2023-04-19T06:17:59.240Z,3.42
2023-04-19T06:19:34.099Z,2.10
2023-04-19T06:21:06.535Z,2.60
2023-04-19T06:22:48.851Z,1.90
2023-04-19T06:24:20.665Z,2.20
2023-04-19T06:25:52.702Z,2.13
2023-04-19T06:27:24.477Z,2.28
2023-04-19T06:28:56.337Z,2.75
2023-04-19T06:30:28.144Z,2.42
2023-04-19T06:32:00.032Z,3.10
2023-04-19T06:33:31.969Z,3.08
2023-04-19T06:35:04.696Z,4.70
2023-04-19T06:36:36.601Z,2.85
2023-04-19T06:38:08.397Z,1.70
2023-04-19T06:39:40.163Z,3.55
2023-04-19T06:41:12.613Z,2.40
2023-04-19T06:42:44.424Z,3.25
2023-04-19T06:44:17.218Z,3.17
2023-04-19T06:45:49.307Z,2.83
2023-04-19T06:47:21.436Z,3.28
2023-04-19T06:48:53.291Z,3.47
2023-04-19T06:50:25.257Z,2.17
2023-04-19T06:51:57.095Z,2.30
2023-04-19T06:53:28.937Z,2.95
2023-04-19T06:55:00.789Z,3.10
2023-04-19T06:56:45.673Z,2.95
2023-04-19T06:58:17.632Z,2.63
2023-04-19T06:59:49.413Z,2.17
2023-04-19T07:01:21.298Z,2.63
2023-04-19T07:02:53.345Z,3.95
2023-04-19T07:04:27.170Z,1.88
2023-04-19T07:05:59.352Z,2.17
2023-04-19T07:07:31.236Z,2.63
2023-04-19T07:09:04.374Z,2.60
2023-04-19T07:10:36.172Z,2.08
2023-04-19T07:12:07.997Z,2.42
2023-04-19T07:13:39.781Z,2.75
2023-04-19T07:15:12.330Z,3.45
2023-04-19T07:16:44.143Z,1.60
2023-04-19T07:18:16.385Z,1.73
2023-04-19T07:19:49.144Z,3.05
2023-04-19T07:21:20.978Z,3.63
2023-04-19T07:22:52.798Z,2.83
2023-04-19T07:24:26.359Z,2.45
2023-04-19T07:25:58.159Z,2.38
2023-04-19T07:27:29.982Z,2.40
2023-04-19T07:29:01.875Z,2.92
2023-04-19T07:30:33.828Z,2.72
2023-04-19T07:32:06.145Z,2.55
2023-04-19T07:33:38.177Z,2.75
2023-04-19T07:35:10.251Z,2.33
2023-04-19T07:36:42.098Z,2.17
2023-04-19T07:38:13.914Z,2.85
2023-04-19T07:39:46.112Z,1.90
2023-04-19T07:41:18.411Z,3.22
2023-04-19T07:42:50.239Z,2.60
2023-04-19T07:44:22.087Z,2.42
2023-04-19T07:45:54.415Z,2.20
2023-04-19T07:47:26.394Z,3.75
2023-04-19T07:48:58.177Z,2.50
2023-04-19T07:50:30.073Z,3.15
2023-04-19T07:52:02.102Z,4.60
2023-04-19T07:53:34.154Z,2.92
2023-04-19T07:55:06.612Z,4.03
2023-04-19T07:56:38.448Z,2.13
2023-04-19T07:58:10.369Z,3.10
2023-04-19T07:59:42.226Z,3.40
2023-04-19T08:01:14.105Z,3.50
2023-04-19T08:02:47.038Z,3.38
2023-04-19T08:04:21.066Z,3.40
2023-04-19T08:05:53.847Z,3.80
2023-04-19T08:07:26.374Z,2.22
2023-04-19T08:08:58.195Z,3.70
2023-04-19T08:10:31.115Z,2.88
2023-04-19T08:12:03.067Z,2.22
2023-04-19T08:13:34.929Z,2.58
2023-04-19T08:15:28.177Z,2.58
2023-04-19T08:18:35.776Z,2.90
2023-04-19T08:20:08.388Z,2.40
2023-04-19T08:21:41.458Z,1.70
2023-04-19T08:23:22.721Z,2.53
2023-04-19T08:24:56.268Z,3.05
2023-04-19T08:26:28.061Z,2.00
2023-04-19T08:28:00.001Z,4.03
2023-04-19T08:29:33.715Z,2.35
2023-04-19T08:31:07.807Z,2.17
2023-04-19T08:32:39.648Z,2.58
2023-04-19T08:34:11.472Z,4.68
2023-04-19T08:35:45.750Z,2.20
2023-04-19T08:37:17.668Z,2.42
2023-04-19T08:39:01.946Z,3.08
2023-04-19T08:40:45.686Z,2.92
2023-04-19T08:42:32.455Z,2.75
2023-04-19T08:44:09.136Z,2.95
2023-04-19T08:45:41.324Z,2.50
2023-04-19T08:47:23.539Z,2.35
2023-04-19T08:49:01.609Z,2.55
2023-04-19T08:50:38.903Z,3.85
2023-04-19T08:52:18.789Z,2.13
2023-04-19T08:53:51.788Z,3.63
2023-04-19T08:55:23.743Z,3.92
2023-04-19T08:56:58.836Z,2.55
2023-04-19T09:00:09.449Z,2.75
2023-04-19T09:01:43.617Z,4.45
2023-04-19T09:03:16.554Z,2.33
2023-04-19T09:04:48.717Z,2.25
2023-04-19T09:06:20.786Z,2.00
2023-04-19T09:07:52.794Z,3.60
2023-04-19T09:09:36.970Z,3.13
2023-04-19T09:11:13.116Z,3.00
2023-04-19T09:13:02.235Z,3.50
2023-04-19T09:14:34.129Z,2.30
2023-04-19T09:16:08.182Z,3.40
2023-04-19T09:17:41.054Z,3.13
2023-04-19T09:19:23.531Z,2.20
2023-04-19T09:21:00.598Z,2.83
2023-04-19T09:22:34.535Z,3.78
2023-04-19T09:24:07.195Z,3.22
2023-04-19T09:25:59.343Z,3.17
2023-04-19T09:27:37.253Z,2.80
2023-04-19T09:29:09.101Z,2.72
2023-04-19T09:32:15.420Z,4.30
2023-04-19T09:33:47.391Z,2.80
2023-04-19T09:35:19.306Z,3.00
2023-04-19T09:37:00.656Z,3.03
2023-04-19T09:38:48.927Z,2.67
2023-04-19T09:40:25.413Z,2.13
2023-04-19T09:41:58.430Z,2.97
2023-04-19T09:43:55.902Z,3.35
2023-04-19T09:46:56.751Z,2.03
2023-04-19T09:48:28.710Z,2.30
2023-04-19T09:50:19.240Z,2.78
2023-04-19T09:51:56.516Z,2.95
2023-04-19T09:53:30.142Z,2.10
2023-04-19T09:55:18.150Z,3.10
2023-04-19T09:56:57.394Z,3.10
2023-04-19T10:00:09.053Z,2.58
2023-04-19T10:01:58.414Z,2.83
2023-04-19T10:03:31.277Z,3.67
2023-04-19T10:05:19.610Z,2.60
2023-04-19T10:07:19.424Z,2.25
2023-04-19T10:08:47.962Z,2.55
2023-04-19T10:10:23.854Z,2.33
2023-04-19T10:12:07.796Z,2.78
2023-04-19T10:13:57.532Z,2.63
2023-04-19T10:15:49.452Z,4.40
2023-04-19T10:17:24.093Z,2.45
2023-04-19T10:18:57.064Z,2.30
2023-04-19T10:20:49.690Z,3.30
2023-04-19T10:22:21.571Z,5.30
2023-04-19T10:23:54.050Z,2.45
2023-04-19T10:25:30.376Z,3.13
2023-04-19T10:27:05.350Z,2.95
2023-04-19T10:28:38.283Z,4.03
2023-04-19T10:30:18.318Z,2.80
2023-04-19T10:31:51.412Z,3.42
2023-04-19T10:33:28.055Z,4.57
2023-04-19T10:35:04.937Z,2.83
2023-04-19T10:36:38.232Z,2.55
2023-04-19T10:38:13.053Z,2.30
2023-04-19T10:39:45.546Z,2.75
2023-04-19T10:41:19.415Z,3.25
2023-04-19T10:43:13.066Z,3.28
2023-04-19T10:45:22.758Z,2.90
2023-04-19T10:46:55.111Z,3.42
2023-04-19T10:48:27.486Z,2.53
2023-04-19T10:49:59.283Z,2.53
2023-04-19T10:51:39.632Z,2.20
2023-04-19T10:53:46.538Z,3.03
2023-04-19T10:55:21.573Z,2.35
2023-04-19T10:57:05.222Z,4.32
2023-04-19T10:59:01.945Z,3.40
2023-04-19T11:00:35.958Z,2.20
2023-04-19T11:02:23.088Z,2.58
2023-04-19T11:03:55.407Z,2.50
2023-04-19T11:05:27.660Z,2.65
2023-04-19T11:07:03.229Z,2.45
2023-04-19T11:08:35.722Z,4.72
2023-04-19T11:10:08.913Z,2.63
2023-04-19T11:11:40.735Z,2.03
2023-04-19T11:13:13.803Z,3.83
2023-04-19T11:14:47.842Z,3.13
2023-04-19T11:16:21.327Z,4.15
2023-04-19T11:18:11.401Z,2.67
2023-04-19T11:19:53.944Z,1.73
2023-04-19T11:21:25.761Z,2.58
2023-04-19T11:23:01.102Z,2.97
2023-04-19T11:24:35.507Z,3.17
2023-04-19T11:26:11.873Z,4.07
2023-04-19T11:27:45.580Z,2.10
2023-04-19T11:29:20.112Z,3.80
2023-04-19T11:30:52.679Z,3.33
2023-04-19T11:32:24.547Z,3.78
2023-04-19T11:33:59.442Z,3.95
2023-04-19T11:35:31.631Z,2.58
2023-04-19T11:37:03.479Z,4.80
2023-04-19T11:38:35.407Z,4.18
2023-04-19T11:40:08.057Z,1.92
2023-04-19T11:41:40.070Z,2.03
2023-04-19T11:43:11.945Z,2.70
2023-04-19T11:44:49.196Z,3.92
2023-04-19T11:46:21.247Z,3.05
2023-04-19T11:47:53.253Z,3.63
2023-04-19T11:49:26.519Z,3.10
2023-04-19T11:50:59.697Z,2.28
2023-04-19T11:52:35.680Z,3.83
2023-04-19T11:54:15.271Z,1.83
2023-04-19T11:55:51.302Z,2.25
2023-04-19T11:57:31.496Z,2.70
2023-04-19T11:59:03.339Z,2.95
2023-04-19T12:00:35.543Z,3.92
2023-04-19T12:02:12.124Z,6.00
2023-04-19T12:03:49.383Z,3.22
2023-04-19T12:05:21.899Z,2.50
2023-04-19T12:07:00.729Z,2.50
2023-04-19T12:08:35.166Z,4.57
2023-04-19T12:10:12.068Z,4.75
2023-04-19T12:11:50.236Z,3.47
2023-04-19T12:13:22.174Z,2.25
2023-04-19T12:14:53.992Z,2.70
2023-04-19T12:16:29.166Z,4.45
2023-04-19T12:18:02.734Z,3.53
2023-04-19T12:19:42.434Z,3.33
2023-04-19T12:21:25.947Z,2.85
2023-04-19T12:22:57.716Z,3.88
2023-04-19T12:24:29.554Z,3.83
2023-04-19T12:26:05.879Z,3.40
2023-04-19T12:27:37.681Z,4.28
2023-04-19T12:29:09.541Z,4.00
2023-04-19T12:30:42.229Z,2.55
2023-04-19T12:32:16.223Z,5.30
2023-04-19T12:33:49.261Z,3.00
2023-04-19T12:35:23.208Z,4.07
2023-04-19T12:36:55.424Z,2.67
2023-04-19T12:38:27.779Z,2.90
2023-04-19T12:39:59.673Z,3.22
2023-04-19T12:41:31.559Z,2.92
2023-04-19T12:43:03.418Z,2.15
2023-04-19T12:44:35.266Z,2.45
2023-04-19T12:46:07.187Z,2.90
2023-04-19T12:47:39.887Z,2.58
2023-04-19T12:49:11.826Z,2.10
2023-04-19T12:50:43.629Z,2.50
2023-04-19T12:52:15.625Z,2.13
2023-04-19T12:53:50.661Z,2.67
2023-04-19T12:55:22.590Z,2.45
2023-04-19T12:56:54.368Z,3.17
2023-04-19T12:58:28.318Z,2.75
2023-04-19T13:00:00.290Z,3.35
2023-04-19T13:01:33.099Z,3.30
2023-04-19T13:03:05.091Z,3.63
2023-04-19T13:04:37.276Z,3.38
2023-04-19T13:06:09.243Z,4.35
2023-04-19T13:07:41.405Z,3.20
2023-04-19T13:09:14.976Z,2.10
2023-04-19T13:10:47.511Z,3.83
2023-04-19T13:12:19.977Z,3.15
2023-04-19T13:13:52.749Z,2.25
2023-04-19T13:15:24.749Z,2.95
2023-04-19T13:16:56.664Z,2.95
2023-04-19T13:18:28.454Z,2.70
2023-04-19T13:20:00.277Z,2.83
2023-04-19T13:21:32.090Z,2.85
2023-04-19T13:23:03.913Z,2.70
2023-04-19T13:24:35.907Z,3.83
2023-04-19T13:26:07.680Z,2.60
2023-04-19T13:27:39.496Z,2.88
2023-04-19T13:29:11.338Z,3.72
2023-04-19T13:30:43.091Z,3.47
2023-04-19T13:32:15.345Z,3.25
2023-04-19T13:33:47.138Z,4.18
2023-04-19T13:35:18.953Z,3.08
2023-04-19T13:36:50.730Z,3.35
2023-04-19T13:38:23.293Z,4.80
2023-04-19T13:40:03.956Z,2.95
2023-04-19T13:41:42.877Z,3.08
2023-04-19T13:43:14.654Z,3.40
2023-04-19T13:44:46.422Z,3.95
2023-04-19T13:46:18.220Z,4.28
2023-04-19T13:47:50.012Z,2.75
2023-04-19T13:49:21.854Z,3.58
2023-04-19T13:50:55.097Z,2.28
2023-04-19T13:52:27.030Z,4.10
2023-04-19T13:53:58.829Z,4.15
2023-04-19T13:55:30.686Z,5.07
2023-04-19T13:57:03.071Z,2.42
2023-04-19T13:58:36.311Z,2.92
2023-04-19T14:00:08.776Z,2.28
2023-04-19T14:01:41.176Z,2.03
2023-04-19T14:03:13.274Z,2.72
2023-04-19T14:04:45.194Z,2.22
2023-04-19T14:06:17.234Z,3.92
2023-04-19T14:07:49.060Z,4.72
2023-04-19T14:09:20.887Z,3.20
2023-04-19T14:10:52.746Z,4.55
2023-04-19T14:12:24.551Z,2.78
2023-04-19T14:13:56.475Z,2.90
2023-04-19T14:15:28.442Z,4.57
2023-04-19T14:17:00.229Z,2.95
2023-04-19T14:18:32.019Z,2.95
2023-04-19T14:20:06.872Z,2.95
2023-04-19T14:21:39.614Z,1.98
2023-04-19T14:23:11.604Z,3.78
2023-04-19T14:24:43.835Z,2.25
2023-04-19T14:26:15.821Z,3.35
2023-04-19T14:27:47.679Z,7.90
2023-04-19T14:29:19.511Z,4.40
2023-04-19T14:30:51.988Z,4.20
2023-04-19T14:32:26.750Z,4.95
2023-04-19T14:34:00.069Z,4.30
2023-04-19T14:35:32.069Z,5.18
2023-04-19T14:37:03.902Z,5.05
2023-04-19T14:38:35.830Z,4.32
2023-04-19T14:40:08.352Z,4.60
2023-04-19T14:41:40.191Z,6.05
2023-04-19T14:43:15.464Z,5.05
2023-04-19T14:44:47.529Z,4.03
2023-04-19T14:46:19.360Z,4.60
2023-04-19T14:47:51.513Z,4.10
2023-04-19T14:49:23.327Z,4.15
2023-04-19T14:50:55.933Z,4.10
2023-04-19T14:52:28.024Z,4.22
2023-04-19T14:53:59.951Z,3.85
2023-04-19T14:55:31.751Z,6.28
2023-04-19T14:57:03.629Z,2.97
2023-04-19T14:58:35.703Z,3.00
2023-04-19T15:00:09.592Z,4.60
2023-04-19T15:01:41.646Z,3.17
2023-04-19T15:03:13.740Z,3.60
2023-04-19T15:04:45.821Z,2.72
2023-04-19T15:06:17.761Z,3.38
2023-04-19T15:07:49.778Z,3.47
2023-04-19T15:09:21.679Z,2.30
2023-04-19T15:10:53.518Z,4.95
2023-04-19T15:12:25.405Z,3.95
2023-04-19T15:13:57.216Z,2.58
2023-04-19T15:15:29.029Z,2.00
2023-04-19T15:17:01.021Z,2.65
2023-04-19T15:18:32.829Z,2.20
2023-04-19T15:20:06.094Z,2.15
2023-04-19T15:21:38.002Z,2.10
2023-04-19T15:23:09.822Z,3.95
2023-04-19T15:24:41.629Z,3.25
2023-04-19T15:26:13.698Z,3.88
2023-04-19T15:27:45.728Z,3.28
2023-04-19T15:29:17.669Z,3.58
2023-04-19T15:31:18.835Z,2.70
2023-04-19T15:32:50.850Z,2.85
2023-04-19T15:34:22.712Z,2.13
2023-04-19T15:35:55.593Z,2.50
2023-04-19T15:37:27.761Z,3.50
2023-04-19T15:38:59.771Z,3.45
2023-04-19T15:40:32.096Z,2.78
2023-04-19T15:42:04.065Z,2.55
2023-04-19T15:43:35.899Z,2.85
2023-04-19T15:45:08.256Z,2.50
2023-04-19T15:46:40.110Z,2.80
2023-04-19T15:48:12.092Z,3.17
2023-04-19T15:49:43.906Z,2.97
2023-04-19T15:51:16.295Z,2.90
2023-04-19T15:52:48.126Z,2.92
2023-04-19T15:54:21.780Z,2.90
2023-04-19T15:55:55.816Z,2.35
2023-04-19T15:57:27.967Z,2.75
2023-04-19T15:58:59.926Z,3.08
2023-04-19T16:00:31.876Z,2.63
2023-04-19T16:02:03.866Z,2.13
2023-04-19T16:03:35.896Z,2.17
2023-04-19T16:05:08.170Z,3.40
2023-04-19T16:06:39.959Z,2.80
2023-04-19T16:08:17.407Z,2.92
2023-04-19T16:09:49.559Z,2.20
2023-04-19T16:11:21.750Z,2.60
2023-04-19T16:12:53.562Z,2.75
2023-04-19T16:14:25.494Z,3.17
2023-04-19T16:15:57.384Z,2.70
2023-04-19T16:17:29.233Z,2.03
2023-04-19T16:19:01.059Z,2.53
2023-04-19T16:20:32.869Z,1.95
2023-04-19T16:22:05.693Z,2.20
2023-04-19T16:23:37.484Z,2.88
2023-04-19T16:25:11.846Z,2.20
2023-04-19T16:26:43.712Z,2.22
2023-04-19T16:28:15.742Z,2.28
2023-04-19T16:29:47.522Z,2.17
2023-04-19T16:31:19.342Z,2.97
2023-04-19T16:32:51.496Z,2.85
2023-04-19T16:34:25.579Z,2.28
2023-04-19T16:35:57.390Z,2.08
2023-04-19T16:37:29.197Z,3.22
2023-04-19T16:39:01.751Z,3.28
2023-04-19T16:40:33.586Z,2.95
2023-04-19T16:42:05.550Z,2.63
2023-04-19T16:43:37.393Z,2.80
2023-04-19T16:45:09.691Z,2.97
2023-04-19T16:46:42.773Z,3.35
2023-04-19T16:48:14.634Z,2.45
2023-04-19T16:49:48.024Z,2.30
2023-04-19T16:51:20.001Z,3.17
2023-04-19T16:52:51.837Z,2.80
2023-04-19T16:54:23.626Z,2.85
2023-04-19T16:55:56.680Z,2.20
2023-04-19T16:57:28.625Z,2.42
2023-04-19T16:59:01.559Z,2.58
2023-04-19T17:00:33.520Z,2.60
2023-04-19T17:02:07.689Z,2.70
2023-04-19T17:03:40.004Z,1.95
2023-04-19T17:05:13.966Z,2.58
2023-04-19T17:06:45.938Z,2.45
2023-04-19T17:08:17.725Z,2.40
2023-04-19T17:09:50.824Z,2.45
2023-04-19T17:11:23.000Z,2.53
2023-04-19T17:12:55.734Z,2.75
2023-04-19T17:14:28.180Z,3.00
2023-04-19T17:16:00.047Z,2.20
2023-04-19T17:17:31.904Z,2.55
2023-04-19T17:19:03.729Z,2.70
2023-04-19T17:20:35.804Z,2.55
2023-04-19T17:22:07.620Z,3.10
2023-04-19T17:23:39.406Z,2.15
2023-04-19T17:25:11.247Z,2.17
2023-04-19T17:26:43.056Z,2.20
2023-04-19T17:28:14.839Z,2.45
2023-04-19T17:29:46.657Z,3.50
2023-04-19T17:31:18.513Z,2.33
2023-04-19T17:32:50.441Z,2.35
2023-04-19T17:34:22.912Z,2.95
2023-04-19T17:35:54.687Z,2.63
2023-04-19T17:37:26.541Z,2.70
2023-04-19T17:38:58.389Z,2.78
2023-04-19T17:40:30.194Z,2.42
2023-04-19T17:42:01.996Z,2.72
2023-04-19T17:43:33.786Z,2.50
2023-04-19T17:45:10.976Z,2.20
2023-04-19T17:46:42.898Z,2.30
2023-04-19T17:48:14.765Z,2.75
2023-04-19T17:49:47.009Z,4.47
2023-04-19T17:51:18.909Z,3.08
2023-04-19T17:52:50.797Z,2.47
2023-04-19T17:54:22.706Z,3.05
2023-04-19T17:55:54.595Z,2.55
2023-04-19T17:57:29.241Z,3.00
2023-04-19T17:59:03.734Z,2.83
2023-04-19T18:00:35.551Z,2.78
2023-04-19T18:02:10.116Z,2.38
2023-04-19T18:03:42.514Z,2.72
2023-04-19T18:05:14.567Z,2.92
2023-04-19T18:06:47.069Z,2.53
2023-04-19T18:08:18.934Z,2.63
2023-04-19T18:09:53.705Z,3.83
2023-04-19T18:11:28.147Z,2.65
2023-04-19T18:13:00.588Z,2.47
2023-04-19T18:14:32.662Z,3.05
2023-04-19T18:16:05.348Z,3.17
2023-04-19T18:17:37.258Z,2.55
2023-04-19T18:19:09.072Z,2.65
2023-04-19T18:20:40.963Z,4.60
2023-04-19T18:22:12.786Z,3.38
2023-04-19T18:23:44.582Z,2.78
2023-04-19T18:25:16.578Z,2.53
2023-04-19T18:26:48.399Z,2.65
2023-04-19T18:28:20.963Z,2.60
2023-04-19T18:29:53.016Z,3.00
2023-04-19T18:31:24.908Z,3.00
2023-04-19T18:32:56.897Z,2.20
2023-04-19T18:34:28.758Z,2.97
2023-04-19T18:36:00.573Z,2.17
2023-04-19T18:37:32.404Z,3.10
2023-04-19T18:39:04.269Z,3.15
2023-04-19T18:40:36.161Z,2.85
2023-04-19T18:42:08.013Z,2.75
2023-04-19T18:43:39.873Z,2.50
2023-04-19T18:45:12.040Z,2.65
2023-04-19T18:46:43.857Z,2.88
2023-04-19T18:48:15.761Z,2.60
2023-04-19T18:50:02.691Z,3.45
2023-04-19T18:51:36.930Z,4.82
2023-04-19T18:53:08.801Z,2.42
2023-04-19T18:54:40.638Z,2.40
2023-04-19T18:56:12.575Z,2.90
2023-04-19T18:57:44.517Z,4.30
2023-04-19T18:59:16.749Z,3.20
2023-04-19T19:00:49.365Z,3.75
2023-04-19T19:02:21.336Z,3.13
2023-04-19T19:04:19.240Z,3.35
2023-04-19T19:05:46.494Z,2.50
2023-04-19T19:07:34.784Z,2.70
2023-04-19T19:09:08.157Z,2.90
2023-04-19T19:11:08.760Z,2.80
2023-04-19T19:12:31.927Z,4.03
2023-04-19T19:14:03.841Z,3.72
2023-04-19T19:15:36.985Z,4.28
2023-04-19T19:17:09.465Z,2.70
2023-04-19T19:18:41.605Z,4.07
2023-04-19T19:20:13.455Z,3.80
2023-04-19T19:21:47.525Z,4.20
2023-04-19T19:23:20.511Z,2.88
2023-04-19T19:24:58.101Z,4.15
2023-04-19T19:26:30.263Z,3.90
2023-04-19T19:28:08.233Z,3.90
2023-04-19T19:29:41.516Z,3.30
2023-04-19T19:31:13.473Z,3.92
2023-04-19T19:32:45.394Z,3.03
2023-04-19T19:34:25.969Z,3.20
2023-04-19T19:36:01.127Z,3.38
2023-04-19T19:37:32.996Z,3.67
2023-04-19T19:39:04.916Z,4.47
2023-04-19T19:40:58.234Z,4.38
2023-04-19T19:42:29.015Z,3.50
2023-04-19T19:44:01.335Z,4.72
2023-04-19T19:45:33.316Z,3.58
2023-04-19T19:47:09.951Z,3.28
2023-04-19T19:48:42.935Z,3.97
2023-04-19T19:50:57.741Z,4.38
2023-04-19T19:52:06.807Z,4.53
2023-04-19T19:53:38.839Z,4.90
2023-04-19T19:55:12.661Z,4.38
2023-04-19T19:57:08.141Z,3.95
2023-04-19T19:58:49.659Z,3.78
2023-04-19T20:00:43.877Z,3.70
2023-04-19T20:02:16.211Z,3.10
2023-04-19T20:03:48.311Z,4.72
2023-04-19T20:05:20.907Z,4.10
2023-04-19T20:08:28.602Z,4.70
2023-04-19T20:10:00.613Z,3.78
2023-04-19T20:11:32.515Z,4.25
2023-04-19T20:13:06.840Z,3.72
2023-04-19T20:14:38.871Z,3.75
2023-04-19T20:16:11.141Z,4.30
2023-04-19T20:17:43.950Z,4.68
2023-04-19T20:19:16.328Z,3.60
2023-04-19T20:20:48.386Z,4.18
2023-04-19T20:22:20.604Z,4.47
2023-04-19T20:23:54.160Z,4.70
2023-04-19T20:25:26.108Z,4.32
2023-04-19T20:26:57.995Z,4.05
2023-04-19T20:28:29.852Z,4.30
2023-04-19T20:30:01.899Z,5.20
2023-04-19T20:31:33.880Z,5.28
2023-04-19T20:33:05.832Z,3.88
2023-04-19T20:34:38.061Z,7.32
2023-04-19T20:36:10.141Z,4.40
2023-04-19T20:37:42.199Z,4.55
2023-04-19T20:39:14.192Z,4.22
2023-04-19T20:40:46.153Z,4.90
2023-04-19T20:42:20.020Z,3.50
2023-04-19T20:43:51.944Z,3.42
2023-04-19T20:45:25.737Z,5.43
2023-04-19T20:46:57.648Z,3.83
2023-04-19T20:48:29.536Z,3.65
2023-04-19T20:50:01.452Z,4.57
2023-04-19T20:51:33.494Z,4.82
2023-04-19T20:53:05.945Z,6.63
2023-04-19T20:54:39.055Z,5.50
2023-04-19T20:56:10.930Z,4.43
2023-04-19T20:57:42.803Z,4.45
2023-04-19T20:59:15.057Z,4.25
2023-04-19T21:00:47.100Z,4.20
2023-04-19T21:02:19.426Z,6.15